Time;durP1;ratioP1;P1;durP2;ratioP2;P2;SDS_P1;SDS_P2;PMS_P1;PMS_P2;Temp;Humidity;BMP_temperature;BMP_pressure;BME280_temperature;BME280_humidity;BME280_pressure;Samples;Min_cycle;Max_cycle;Signal;HPM_P1;HPM_P2
2023/12/29 00:00:04;;;;;;;7.87;1.60;;;10.40;52.60;;;;;;5104593;28;20174;-78
2023/12/29 00:02:30;;;;;;;8.43;1.97;;;10.40;79.40;;;;;;5106397;28;20201;-77
2023/12/29 00:04:55;;;;;;;6.23;1.70;;;10.50;67.40;;;;;;5105867;28;20201;-77
2023/12/29 00:07:21;;;;;;;9.03;1.40;;;10.50;50.50;;;;;;5106104;28;20178;-78
2023/12/29 00:09:46;;;;;;;4.77;1.40;;;10.50;78.30;;;;;;5104518;28;20198;-77
2023/12/29 00:12:11;;;;;;;6.27;1.40;;;10.50;45.50;;;;;;5103936;28;20209;-77
2023/12/29 00:14:39;;;;;;;6.77;1.57;;;10.50;43.10;;;;;;5104619;28;20209;-77
2023/12/29 00:17:05;;;;;;;6.93;1.73;;;10.50;49.20;;;;;;5105431;28;20569;-77
2023/12/29 00:19:30;;;;;;;4.83;1.47;;;10.50;43.20;;;;;;5106601;28;20175;-77
2023/12/29 00:21:56;;;;;;;3.87;1.43;;;10.50;52.90;;;;;;5106420;28;20190;-77
2023/12/29 00:24:21;;;;;;;4.90;1.40;;;10.50;29.30;;;;;;5104319;28;20205;-78
2023/12/29 00:26:47;;;;;;;6.50;1.23;;;10.50;1.00;;;;;;5105547;28;20175;-78
2023/12/29 00:29:15;;;;;;;6.67;1.83;;;10.50;8.80;;;;;;5106187;28;20178;-77
2023/12/29 00:31:41;;;;;;;6.97;1.37;;;10.50;2.80;;;;;;5107805;28;20205;-77
2023/12/29 00:34:07;;;;;;;9.17;1.90;;;10.50;6.90;;;;;;5107440;28;20242;-77
2023/12/29 00:36:32;;;;;;;6.97;1.50;;;10.50;3.10;;;;;;5107223;28;20206;-76
2023/12/29 00:38:58;;;;;;;6.90;1.67;;;10.50;13.50;;;;;;5107547;28;20174;-77
2023/12/29 00:41:23;;;;;;;6.20;1.40;;;10.50;11.00;;;;;;5106756;28;20170;-77
2023/12/29 00:43:49;;;;;;;5.60;1.23;;;10.50;16.60;;;;;;5106607;28;20638;-77
2023/12/29 00:46:17;;;;;;;9.70;1.47;;;10.40;40.90;;;;;;5106395;28;20227;-76
2023/12/29 00:48:43;;;;;;;6.63;1.47;;;10.50;34.30;;;;;;5107438;28;20189;-77
2023/12/29 00:51:09;;;;;;;5.97;1.40;;;10.50;26.10;;;;;;5106854;28;20182;-77
2023/12/29 00:53:35;;;;;;;6.27;1.47;;;10.50;27.70;;;;;;5106976;28;20190;-77
2023/12/29 00:56:00;;;;;;;3.87;1.17;;;10.50;30.00;;;;;;5105574;28;20209;-77
2023/12/29 00:58:26;;;;;;;6.43;1.40;;;10.50;11.10;;;;;;5112851;28;20166;-77
2023/12/29 01:00:52;;;;;;;12.17;1.50;;;10.50;9.60;;;;;;5107265;28;20193;-76
2023/12/29 01:03:18;;;;;;;7.53;1.40;;;10.60;3.30;;;;;;5108470;28;20189;-77
2023/12/29 01:05:43;;;;;;;10.23;1.93;;;10.60;1.00;;;;;;5106902;28;20174;-77
2023/12/29 01:08:09;;;;;;;3.13;1.43;;;10.70;1.00;;;;;;5105288;28;20174;-77
2023/12/29 01:10:34;;;;;;;6.87;1.80;;;10.60;1.00;;;;;;5104839;28;20174;-76
2023/12/29 01:13:00;;;;;;;9.30;1.77;;;10.70;5.40;;;;;;5099236;28;20274;-78
2023/12/29 01:15:25;;;;;;;8.17;1.73;;;10.70;1.00;;;;;;5095188;28;20623;-77
2023/12/29 01:17:51;;;;;;;10.23;1.50;;;10.60;7.50;;;;;;5093557;28;20202;-78
2023/12/29 01:20:16;;;;;;;7.13;1.70;;;10.70;7.30;;;;;;5094938;28;20197;-77
2023/12/29 01:22:42;;;;;;;6.83;1.47;;;10.70;1.00;;;;;;5094857;28;20198;-78
2023/12/29 01:25:07;;;;;;;7.07;1.77;;;10.80;1.00;;;;;;5094974;28;20210;-78
2023/12/29 01:27:33;;;;;;;6.07;1.67;;;10.70;6.40;;;;;;5094698;28;20265;-77
2023/12/29 01:29:59;;;;;;;5.83;1.70;;;10.70;24.60;;;;;;5094543;28;20182;-78
2023/12/29 01:32:25;;;;;;;5.27;1.63;;;10.70;26.70;;;;;;5093234;28;20214;-77
2023/12/29 01:34:52;;;;;;;5.07;1.23;;;10.70;1.00;;;;;;5094078;28;20243;-78
2023/12/29 01:37:17;;;;;;;7.43;1.53;;;10.70;24.80;;;;;;5092877;28;20198;-77
2023/12/29 01:39:43;;;;;;;10.17;1.90;;;10.70;1.00;;;;;;5094845;28;20174;-78
2023/12/29 01:42:11;;;;;;;6.50;1.50;;;10.70;1.00;;;;;;5094312;28;20214;-78
2023/12/29 01:44:37;;;;;;;5.03;1.50;;;10.70;1.00;;;;;;5093024;28;20493;-78
2023/12/29 01:47:05;;;;;;;6.90;1.37;;;10.70;1.00;;;;;;5093992;28;20228;-77
2023/12/29 01:49:32;;;;;;;7.63;1.90;;;10.80;1.00;;;;;;5093898;28;20182;-77
2023/12/29 01:52:00;;;;;;;5.17;1.60;;;10.80;1.00;;;;;;5092606;28;20611;-77
2023/12/29 01:54:29;;;;;;;7.47;1.77;;;10.80;1.00;;;;;;5092690;28;20481;-77
2023/12/29 01:56:59;;;;;;;9.23;1.93;;;10.80;1.00;;;;;;5094180;28;20195;-78
2023/12/29 01:59:25;;;;;;;9.20;2.37;;;10.80;1.00;;;;;;5092545;28;20182;-77
2023/12/29 02:01:52;;;;;;;6.47;1.40;;;10.80;1.00;;;;;;5093921;28;20193;-77
2023/12/29 02:04:18;;;;;;;8.50;2.13;;;10.70;27.20;;;;;;5093645;28;20527;-78
2023/12/29 02:06:44;;;;;;;10.30;1.80;;;10.80;63.10;;;;;;5092383;28;20178;-78
2023/12/29 02:09:12;;;;;;;8.10;1.90;;;10.70;93.40;;;;;;5092334;28;20707;-77
2023/12/29 02:11:38;;;;;;;8.43;1.73;;;10.60;82.30;;;;;;5094349;28;20194;-78
2023/12/29 02:14:04;;;;;;;10.47;2.37;;;10.60;99.90;;;;;;5098766;28;20171;-76
2023/12/29 02:17:15;;;;;;;12.23;1.73;;;10.60;99.90;;;;;;5103521;28;20185;-77
2023/12/29 02:19:46;;;;;;;9.80;2.10;;;10.50;99.90;;;;;;5098201;28;20184;-77
2023/12/29 02:22:12;;;;;;;7.77;1.80;;;10.40;99.90;;;;;;5101228;28;20184;-77
2023/12/29 02:24:39;;;;;;;8.40;1.70;;;10.40;99.90;;;;;;5101579;28;20575;-77
2023/12/29 02:27:25;;;;;;;9.47;2.13;;;10.30;99.90;;;;;;5100304;28;20239;-76
2023/12/29 02:30:02;;;;;;;8.93;1.77;;;10.30;99.90;;;;;;5103720;28;20178;-77
2023/12/29 02:32:30;;;;;;;9.20;2.20;;;10.20;99.90;;;;;;5109023;28;20220;-77
2023/12/29 02:34:58;;;;;;;8.13;1.80;;;10.20;99.90;;;;;;5105416;28;20242;-77
2023/12/29 02:37:25;;;;;;;11.10;3.03;;;10.20;99.90;;;;;;5106059;28;20677;-77
2023/12/29 02:39:51;;;;;;;10.43;2.23;;;10.20;99.90;;;;;;5104553;28;20170;-76
2023/12/29 02:42:17;;;;;;;8.93;2.20;;;10.20;99.90;;;;;;5104760;28;20269;-77
2023/12/29 02:44:43;;;;;;;8.43;1.93;;;10.20;99.90;;;;;;5105610;28;20174;-77
2023/12/29 02:47:08;;;;;;;9.73;2.03;;;10.10;99.90;;;;;;5105168;28;20541;-77
2023/12/29 02:49:34;;;;;;;6.73;1.83;;;10.20;99.90;;;;;;5103993;28;20243;-76
2023/12/29 02:51:59;;;;;;;8.83;2.00;;;10.20;99.90;;;;;;5102756;28;20244;-77
2023/12/29 02:54:25;;;;;;;10.23;1.83;;;10.20;99.90;;;;;;5103370;28;20174;-77
2023/12/29 02:56:50;;;;;;;5.13;1.63;;;10.20;99.90;;;;;;5104720;28;20194;-76
2023/12/29 02:59:16;;;;;;;5.13;1.80;;;10.30;99.90;;;;;;5104124;28;20175;-77
2023/12/29 03:01:42;;;;;;;6.40;1.53;;;10.30;99.90;;;;;;5103240;28;20190;-77
2023/12/29 03:04:07;;;;;;;9.33;2.03;;;10.20;99.90;;;;;;5104018;28;20255;-77
2023/12/29 03:06:33;;;;;;;10.83;1.80;;;10.20;99.90;;;;;;5105042;28;20174;-77
2023/12/29 03:08:58;;;;;;;7.60;1.97;;;10.20;99.90;;;;;;5099632;28;20184;-76
2023/12/29 03:11:24;;;;;;;7.30;2.00;;;10.10;99.90;;;;;;5092375;28;20178;-77
2023/12/29 03:13:49;;;;;;;11.40;2.00;;;10.20;99.90;;;;;;5092278;28;20551;-77
2023/12/29 03:16:15;;;;;;;7.10;1.53;;;10.20;99.90;;;;;;5095962;28;20190;-76
2023/12/29 03:18:41;;;;;;;14.27;2.07;;;10.20;99.90;;;;;;5094579;28;20171;-76
2023/12/29 03:21:07;;;;;;;10.70;1.73;;;10.20;99.90;;;;;;5094571;28;20175;-77
2023/12/29 03:23:34;;;;;;;6.47;1.80;;;10.20;99.90;;;;;;5095873;28;20182;-77
2023/12/29 03:25:59;;;;;;;10.00;2.00;;;10.20;99.90;;;;;;5096100;28;20190;-77
2023/12/29 03:28:25;;;;;;;8.07;1.77;;;10.30;99.90;;;;;;5094374;28;20604;-76
2023/12/29 03:30:50;;;;;;;12.93;1.87;;;10.30;99.90;;;;;;5094128;28;20710;-77
2023/12/29 03:33:16;;;;;;;5.23;1.87;;;10.30;99.90;;;;;;5094151;28;20746;-77
2023/12/29 03:35:41;;;;;;;11.90;2.00;;;10.30;99.90;;;;;;5095550;28;20193;-77
2023/12/29 03:38:07;;;;;;;9.00;2.00;;;10.40;99.90;;;;;;5095478;28;20293;-77
2023/12/29 03:40:32;;;;;;;8.70;1.80;;;10.40;99.90;;;;;;5094780;28;20204;-77
2023/12/29 03:42:58;;;;;;;12.77;1.87;;;10.40;99.90;;;;;;5095435;28;20197;-77
2023/12/29 03:45:24;;;;;;;5.67;1.90;;;10.40;99.90;;;;;;5095669;28;20171;-77
2023/12/29 03:47:49;;;;;;;8.77;2.00;;;10.40;99.90;;;;;;5095616;28;20178;-77
2023/12/29 03:50:15;;;;;;;9.53;1.47;;;10.40;99.90;;;;;;5088913;28;20179;-77
2023/12/29 03:52:40;;;;;;;7.53;1.93;;;10.40;99.90;;;;;;5074884;28;20202;-76
2023/12/29 03:55:06;;;;;;;9.07;2.03;;;10.40;99.90;;;;;;5074948;28;20591;-76
2023/12/29 03:57:32;;;;;;;6.73;1.63;;;10.40;99.90;;;;;;5074981;28;20187;-77
2023/12/29 03:59:57;;;;;;;7.93;2.20;;;10.40;99.90;;;;;;5075493;28;20167;-77
2023/12/29 04:02:23;;;;;;;11.63;1.70;;;10.40;99.90;;;;;;5093626;28;20190;-77
2023/12/29 04:04:48;;;;;;;7.10;2.17;;;10.40;99.90;;;;;;5093616;28;20265;-77
2023/12/29 04:07:14;;;;;;;7.40;2.00;;;10.50;99.90;;;;;;5093533;28;20253;-77
2023/12/29 04:09:39;;;;;;;7.93;1.90;;;10.40;99.90;;;;;;5095027;28;20534;-77
2023/12/29 04:12:05;;;;;;;9.37;2.20;;;10.40;99.90;;;;;;5091656;28;20206;-76
2023/12/29 04:14:31;;;;;;;10.07;1.93;;;10.40;99.90;;;;;;5094604;28;20170;-76
2023/12/29 04:16:56;;;;;;;5.37;1.57;;;10.50;99.90;;;;;;5093407;28;20229;-77
2023/12/29 04:19:22;;;;;;;11.93;1.87;;;10.40;99.90;;;;;;5094559;28;20253;-76
2023/12/29 04:21:47;;;;;;;9.30;1.67;;;10.50;99.90;;;;;;5092812;28;20251;-77
2023/12/29 04:24:13;;;;;;;10.77;1.80;;;10.60;99.90;;;;;;5094671;28;20166;-77
2023/12/29 04:26:38;;;;;;;8.90;1.70;;;10.60;99.90;;;;;;5091548;28;20247;-77
2023/12/29 04:29:04;;;;;;;8.10;1.53;;;10.60;99.90;;;;;;5093476;28;20223;-77
2023/12/29 04:31:29;;;;;;;11.03;1.80;;;10.60;99.90;;;;;;5092500;28;20595;-77
2023/12/29 04:33:55;;;;;;;6.60;1.47;;;10.60;99.90;;;;;;5093529;28;20273;-77
2023/12/29 04:36:20;;;;;;;5.83;1.87;;;10.60;99.90;;;;;;5095643;28;20244;-77
2023/12/29 04:38:46;;;;;;;6.30;1.77;;;10.60;99.90;;;;;;5095596;28;20174;-77
2023/12/29 04:41:12;;;;;;;3.37;1.40;;;10.60;99.90;;;;;;5094822;28;20182;-77
2023/12/29 04:43:38;;;;;;;12.27;1.73;;;10.50;99.90;;;;;;5094944;28;20208;-77
2023/12/29 04:46:03;;;;;;;6.20;1.50;;;10.50;99.90;;;;;;5095038;28;20231;-77
2023/12/29 04:48:29;;;;;;;9.03;2.07;;;10.50;99.90;;;;;;5093311;28;20672;-77
2023/12/29 04:50:54;;;;;;;7.30;1.77;;;10.40;99.90;;;;;;5093237;28;20255;-77
2023/12/29 04:53:20;;;;;;;7.50;1.60;;;10.40;99.90;;;;;;5092827;28;20194;-77
2023/12/29 04:55:45;;;;;;;10.73;2.10;;;10.40;99.90;;;;;;5094262;28;20202;-77
2023/12/29 04:58:11;;;;;;;10.57;1.80;;;10.30;99.90;;;;;;5092683;28;20178;-77
2023/12/29 05:00:37;;;;;;;10.47;2.23;;;10.30;99.90;;;;;;5091901;28;20213;-77
2023/12/29 05:03:03;;;;;;;6.00;1.63;;;10.30;99.90;;;;;;5093822;28;20206;-77
2023/12/29 05:05:28;;;;;;;10.40;2.43;;;10.30;99.90;;;;;;5092507;28;20232;-77
2023/12/29 05:07:54;;;;;;;10.23;1.80;;;10.40;99.90;;;;;;5093683;28;20696;-77
2023/12/29 05:10:19;;;;;;;6.13;1.50;;;10.30;99.90;;;;;;5091678;28;20185;-77
2023/12/29 05:12:44;;;;;;;7.40;1.80;;;10.30;99.90;;;;;;5092309;28;20190;-77
2023/12/29 05:15:10;;;;;;;7.80;1.83;;;10.30;99.90;;;;;;5092324;28;20178;-77
2023/12/29 05:17:36;;;;;;;10.00;1.73;;;10.30;99.90;;;;;;5092168;28;20696;-77
2023/12/29 05:20:01;;;;;;;6.47;1.50;;;10.40;99.90;;;;;;5091259;28;20556;-77
2023/12/29 05:22:27;;;;;;;7.20;1.77;;;10.30;99.90;;;;;;5092784;28;20193;-77
2023/12/29 05:24:53;;;;;;;7.23;1.93;;;10.30;99.90;;;;;;5092513;28;20182;-76
2023/12/29 05:27:18;;;;;;;7.70;1.57;;;10.40;99.90;;;;;;5093301;28;20248;-77
2023/12/29 05:29:44;;;;;;;9.63;1.73;;;10.40;99.90;;;;;;5092100;28;20184;-77
2023/12/29 05:32:09;;;;;;;4.27;1.60;;;10.40;99.90;;;;;;5091858;28;20210;-77
2023/12/29 05:34:35;;;;;;;7.50;1.70;;;10.40;99.90;;;;;;5092174;28;20261;-76
2023/12/29 05:37:01;;;;;;;7.83;1.83;;;10.40;99.90;;;;;;5092637;28;20565;-77
2023/12/29 05:39:26;;;;;;;6.13;1.53;;;10.40;99.90;;;;;;5092004;28;20177;-77
2023/12/29 05:41:52;;;;;;;7.70;1.90;;;10.30;99.90;;;;;;5093087;28;20194;-76
2023/12/29 05:44:17;;;;;;;6.97;1.60;;;10.30;99.90;;;;;;5092401;28;20603;-76
2023/12/29 05:46:47;;;;;;;5.77;1.77;;;10.30;99.90;;;;;;5092878;28;20606;-76
2023/12/29 05:49:12;;;;;;;7.40;1.83;;;10.30;99.90;;;;;;5091628;28;20209;-77
2023/12/29 05:51:37;;;;;;;6.97;1.60;;;10.30;99.90;;;;;;5092835;28;20214;-77
2023/12/29 05:54:03;;;;;;;5.77;1.47;;;10.30;99.90;;;;;;5093096;28;20640;-76
2023/12/29 05:56:29;;;;;;;5.80;1.63;;;10.40;99.90;;;;;;5092409;28;20202;-77
2023/12/29 05:58:54;;;;;;;7.43;2.00;;;10.40;99.90;;;;;;5091598;28;20174;-76
2023/12/29 06:01:20;;;;;;;8.13;1.67;;;10.40;99.90;;;;;;5092819;28;20253;-77
2023/12/29 06:03:45;;;;;;;8.90;1.67;;;10.40;99.90;;;;;;5092953;28;20551;-77
2023/12/29 06:06:11;;;;;;;10.23;1.97;;;10.40;99.90;;;;;;5093046;28;20177;-75
2023/12/29 06:08:36;;;;;;;8.03;2.70;;;10.40;99.90;;;;;;5092131;28;20724;-77
2023/12/29 06:11:02;;;;;;;10.33;1.93;;;10.40;99.90;;;;;;5092747;28;20198;-77
2023/12/29 06:13:28;;;;;;;8.50;1.83;;;10.40;99.90;;;;;;5091267;28;20280;-77
2023/12/29 06:15:54;;;;;;;7.50;1.70;;;10.40;99.90;;;;;;5092697;28;20166;-76
2023/12/29 06:18:19;;;;;;;5.67;1.63;;;10.30;99.90;;;;;;5091527;28;20224;-77
2023/12/29 06:20:45;;;;;;;9.37;2.07;;;10.30;99.90;;;;;;5091323;28;20170;-77
2023/12/29 06:23:10;;;;;;;7.17;2.10;;;10.30;99.90;;;;;;5090805;28;20228;-77
2023/12/29 06:25:36;;;;;;;6.73;1.97;;;10.30;99.90;;;;;;5092545;28;20252;-78
2023/12/29 06:28:03;;;;;;;5.53;1.87;;;10.20;99.90;;;;;;5092779;28;20174;-79
2023/12/29 06:30:29;;;;;;;7.70;2.23;;;10.20;99.90;;;;;;5095780;28;20174;-78
2023/12/29 06:32:54;;;;;;;10.07;1.90;;;10.20;99.90;;;;;;5094188;28;20238;-78
2023/12/29 06:35:20;;;;;;;9.90;1.70;;;10.20;99.90;;;;;;5095692;28;20216;-78
2023/12/29 06:37:45;;;;;;;8.43;1.87;;;10.30;99.90;;;;;;5095485;28;20198;-79
2023/12/29 06:40:11;;;;;;;8.57;1.80;;;10.30;99.90;;;;;;5095592;28;20501;-78
2023/12/29 06:42:37;;;;;;;6.37;1.67;;;10.30;99.90;;;;;;5093777;28;20190;-78
2023/12/29 06:45:03;;;;;;;8.83;1.60;;;10.40;99.90;;;;;;5094130;28;20174;-78
2023/12/29 06:47:29;;;;;;;5.70;1.50;;;10.40;99.90;;;;;;5096359;28;20717;-78
2023/12/29 06:49:54;;;;;;;8.67;1.83;;;10.40;99.90;;;;;;5109186;28;20170;-78
2023/12/29 06:52:20;;;;;;;7.50;2.23;;;10.40;99.90;;;;;;5112457;28;20198;-78
2023/12/29 06:54:45;;;;;;;9.30;1.83;;;10.30;99.90;;;;;;5099069;28;20178;-78
2023/12/29 06:57:14;;;;;;;8.03;1.77;;;10.40;99.90;;;;;;5094955;28;20197;-78
2023/12/29 06:59:39;;;;;;;7.17;1.73;;;10.50;99.90;;;;;;5094798;28;20192;-78
2023/12/29 07:02:05;;;;;;;6.87;2.03;;;10.30;99.90;;;;;;5095459;28;20198;-77
2023/12/29 07:04:30;;;;;;;8.10;1.53;;;10.50;99.90;;;;;;5096414;28;20162;-78
2023/12/29 07:06:56;;;;;;;9.87;1.70;;;10.50;99.90;;;;;;5095770;28;20265;-77
2023/12/29 07:09:22;;;;;;;8.67;1.77;;;10.50;99.90;;;;;;5097007;28;20548;-78
2023/12/29 07:11:50;;;;;;;4.77;1.60;;;10.50;99.90;;;;;;5096800;28;20744;-77
2023/12/29 07:14:16;;;;;;;4.70;1.07;;;10.40;99.90;;;;;;5095778;28;20515;-77
2023/12/29 07:16:41;;;;;;;7.57;1.80;;;10.40;99.90;;;;;;5095727;28;20198;-77
2023/12/29 07:19:07;;;;;;;11.83;1.97;;;10.30;99.90;;;;;;5095169;28;20261;-77
2023/12/29 07:21:32;;;;;;;10.00;1.63;;;10.30;99.90;;;;;;5095435;28;20170;-78
2023/12/29 07:23:58;;;;;;;7.83;2.27;;;10.30;99.90;;;;;;5095479;28;20657;-78
2023/12/29 07:26:23;;;;;;;10.07;1.50;;;10.20;99.90;;;;;;5095548;28;20174;-78
2023/12/29 07:28:53;;;;;;;11.60;2.37;;;10.20;99.90;;;;;;5096893;28;20170;-78
2023/12/29 07:31:22;;;;;;;5.60;1.40;;;10.10;99.90;;;;;;5095031;28;20392;-79
2023/12/29 07:33:49;;;;;;;9.03;1.53;;;10.10;99.90;;;;;;5095107;28;20678;-78
2023/12/29 07:36:14;;;;;;;7.77;2.10;;;10.10;99.90;;;;;;5096792;28;20212;-78
2023/12/29 07:38:40;;;;;;;6.97;1.63;;;10.00;99.90;;;;;;5095916;28;20171;-77
2023/12/29 07:41:05;;;;;;;7.20;1.33;;;10.00;99.90;;;;;;5096094;28;20166;-77
2023/12/29 07:43:31;;;;;;;9.03;1.83;;;10.00;99.90;;;;;;5093919;28;20712;-75
2023/12/29 07:45:57;;;;;;;7.77;1.77;;;9.90;99.90;;;;;;5094771;28;20703;-75
2023/12/29 07:48:23;;;;;;;7.23;1.60;;;9.90;99.90;;;;;;5092801;28;20179;-76
2023/12/29 07:50:48;;;;;;;8.50;1.87;;;9.90;99.90;;;;;;5093714;28;20166;-75
2023/12/29 07:53:14;;;;;;;7.27;1.60;;;9.90;99.90;;;;;;5095044;28;20194;-76
2023/12/29 07:55:40;;;;;;;6.90;1.50;;;9.90;99.90;;;;;;5095047;28;20175;-76
2023/12/29 07:58:06;;;;;;;6.77;1.87;;;9.90;99.90;;;;;;5094982;28;20197;-75
2023/12/29 08:00:31;;;;;;;10.47;2.00;;;9.90;99.90;;;;;;5093434;28;20167;-75
2023/12/29 08:02:59;;;;;;;12.90;1.60;;;10.00;99.90;;;;;;5093822;28;20203;-76
2023/12/29 08:05:24;;;;;;;7.37;1.80;;;10.00;99.90;;;;;;5093466;28;20215;-76
2023/12/29 08:07:50;;;;;;;6.23;1.60;;;10.00;99.90;;;;;;5094728;28;20193;-75
2023/12/29 08:10:15;;;;;;;5.87;1.27;;;10.00;99.90;;;;;;5094703;28;20178;-75
2023/12/29 08:12:41;;;;;;;13.10;2.63;;;10.00;99.90;;;;;;5094617;28;20197;-75
2023/12/29 08:15:07;;;;;;;5.77;1.47;;;10.00;99.90;;;;;;5093286;28;20679;-75
2023/12/29 08:17:32;;;;;;;6.30;1.40;;;9.90;99.90;;;;;;5094629;28;20193;-76
2023/12/29 08:19:58;;;;;;;6.37;1.50;;;9.90;99.90;;;;;;5092333;28;20182;-76
2023/12/29 08:22:23;;;;;;;6.80;1.60;;;9.90;99.90;;;;;;5094635;28;20186;-75
2023/12/29 08:24:49;;;;;;;8.27;1.77;;;9.90;99.90;;;;;;5093109;28;20177;-75
2023/12/29 08:27:22;;;;;;;4.93;1.10;;;9.90;99.90;;;;;;5094395;28;20284;-75
2023/12/29 08:29:48;;;;;;;5.40;1.30;;;9.90;99.90;;;;;;5094450;28;20151;-76
2023/12/29 08:32:13;;;;;;;4.13;1.80;;;9.90;99.90;;;;;;5092813;28;20727;-76
2023/12/29 08:34:39;;;;;;;8.80;1.60;;;9.90;99.90;;;;;;5093395;28;20174;-76
2023/12/29 08:37:04;;;;;;;4.67;1.20;;;9.90;99.90;;;;;;5091821;28;20198;-77
2023/12/29 08:39:30;;;;;;;4.63;1.47;;;9.90;99.90;;;;;;5092151;28;20174;-76
2023/12/29 08:41:55;;;;;;;7.00;1.50;;;9.90;99.90;;;;;;5094025;28;20186;-76
2023/12/29 08:44:21;;;;;;;8.00;1.77;;;9.90;99.90;;;;;;5093974;28;20189;-76
2023/12/29 08:46:46;;;;;;;6.10;1.37;;;9.80;99.90;;;;;;5093381;28;20277;-76
2023/12/29 08:49:12;;;;;;;7.00;1.10;;;9.90;99.90;;;;;;5094016;28;20637;-76
2023/12/29 08:51:38;;;;;;;4.97;1.10;;;9.90;99.90;;;;;;5093700;28;20611;-76
2023/12/29 08:54:03;;;;;;;3.00;0.90;;;9.90;99.90;;;;;;5092479;28;20210;-77
2023/12/29 08:56:29;;;;;;;6.53;1.20;;;9.90;99.90;;;;;;5093614;28;20194;-75
2023/12/29 08:58:54;;;;;;;2.70;0.83;;;9.90;99.90;;;;;;5094594;28;20195;-77
2023/12/29 09:01:20;;;;;;;4.93;1.13;;;9.90;99.90;;;;;;5075405;28;20187;-76
2023/12/29 09:03:46;;;;;;;5.83;0.87;;;9.90;99.90;;;;;;5073414;28;20187;-76
2023/12/29 09:06:11;;;;;;;7.47;0.93;;;10.00;99.90;;;;;;5073412;28;20205;-74
2023/12/29 09:08:37;;;;;;;1.93;0.70;;;9.90;99.90;;;;;;5073618;28;20199;-76
2023/12/29 09:11:03;;;;;;;3.77;0.83;;;10.00;99.90;;;;;;5072640;28;20700;-76
2023/12/29 09:13:29;;;;;;;3.47;0.80;;;10.00;99.90;;;;;;5073158;28;20182;-76
2023/12/29 09:15:55;;;;;;;3.73;0.90;;;10.00;99.90;;;;;;5073679;28;20699;-77
2023/12/29 09:18:20;;;;;;;2.70;0.63;;;10.00;99.90;;;;;;5091959;28;20182;-75
2023/12/29 09:20:47;;;;;;;2.57;0.80;;;10.00;99.90;;;;;;5093416;28;20239;-76
2023/12/29 09:23:13;;;;;;;3.47;1.07;;;10.00;99.90;;;;;;5093286;28;20186;-75
2023/12/29 09:25:39;;;;;;;3.73;0.80;;;10.00;99.90;;;;;;5093359;28;20220;-76
2023/12/29 09:28:04;;;;;;;1.60;0.70;;;10.00;99.90;;;;;;5091909;28;20178;-76
2023/12/29 09:30:30;;;;;;;3.60;0.80;;;10.00;99.90;;;;;;5091954;28;20234;-75
2023/12/29 09:32:56;;;;;;;1.60;0.70;;;10.10;99.90;;;;;;5091284;28;20230;-75
2023/12/29 09:35:21;;;;;;;3.60;1.00;;;10.10;99.90;;;;;;5093113;28;20282;-76
2023/12/29 09:37:50;;;;;;;1.47;0.60;;;10.10;99.90;;;;;;5091710;28;20194;-76
2023/12/29 09:40:16;;;;;;;2.97;0.70;;;10.10;99.90;;;;;;5091727;28;20185;-75
2023/12/29 09:42:45;;;;;;;2.60;0.70;;;10.10;99.90;;;;;;5093119;28;20186;-76
2023/12/29 09:45:12;;;;;;;2.03;0.60;;;10.10;99.90;;;;;;5093136;28;20215;-75
2023/12/29 09:47:42;;;;;;;3.43;0.80;;;10.10;99.90;;;;;;5091667;28;20181;-75
2023/12/29 09:50:11;;;;;;;2.13;0.80;;;10.10;99.90;;;;;;5091792;28;20672;-76
2023/12/29 09:52:39;;;;;;;2.33;0.80;;;10.20;99.90;;;;;;5091498;28;20251;-76
2023/12/29 09:55:09;;;;;;;3.80;0.70;;;10.20;99.90;;;;;;5092009;28;20272;-75
2023/12/29 09:57:35;;;;;;;1.90;0.70;;;10.10;99.90;;;;;;5092742;28;20196;-75
2023/12/29 10:00:02;;;;;;;1.80;0.77;;;10.10;99.90;;;;;;5092721;28;20174;-75
2023/12/29 10:02:28;;;;;;;0.77;0.53;;;10.10;99.90;;;;;;5092927;28;20281;-75
2023/12/29 10:04:55;;;;;;;1.43;0.60;;;10.10;99.90;;;;;;5092851;28;20569;-75
2023/12/29 10:07:25;;;;;;;1.70;0.60;;;10.00;99.90;;;;;;5091422;28;20220;-75
2023/12/29 10:09:58;;;;;;;2.53;0.60;;;10.00;99.90;;;;;;5091445;28;20689;-78
2023/12/29 10:12:24;;;;;;;1.73;0.80;;;10.00;99.90;;;;;;5093074;28;20194;-75
2023/12/29 10:14:57;;;;;;;2.10;0.60;;;10.00;99.90;;;;;;5091249;28;20181;-75
2023/12/29 10:17:47;;;;;;;2.10;0.70;;;9.90;99.90;;;;;;5091151;28;20194;-75
2023/12/29 10:20:39;;;;;;;1.63;0.70;;;9.90;99.90;;;;;;5092625;28;20238;-75
2023/12/29 10:23:16;;;;;;;1.20;0.50;;;9.90;99.90;;;;;;5091136;28;20205;-75
2023/12/29 10:25:42;;;;;;;3.63;0.90;;;9.90;99.90;;;;;;5092512;28;20241;-75
2023/12/29 10:28:09;;;;;;;2.47;0.90;;;9.90;99.90;;;;;;5092330;28;20610;-75
2023/12/29 10:30:35;;;;;;;3.13;1.13;;;9.90;99.90;;;;;;5092593;28;20185;-78
2023/12/29 10:33:02;;;;;;;1.83;1.00;;;9.90;99.90;;;;;;5092399;28;20214;-77
2023/12/29 10:35:29;;;;;;;2.53;1.00;;;9.90;99.90;;;;;;5092682;28;20223;-77
2023/12/29 10:38:07;;;;;;;5.37;1.17;;;9.90;99.90;;;;;;5093977;28;20205;-78
2023/12/29 10:40:33;;;;;;;3.67;1.33;;;9.90;99.90;;;;;;5093132;28;20557;-78
2023/12/29 10:43:00;;;;;;;5.70;1.10;;;9.90;99.90;;;;;;5096419;28;20279;-80
2023/12/29 10:45:26;;;;;;;2.50;0.80;;;10.00;99.90;;;;;;5097365;28;20170;-78
2023/12/29 10:47:52;;;;;;;3.17;0.90;;;10.00;99.90;;;;;;5101550;28;20250;-77
2023/12/29 10:50:17;;;;;;;4.20;1.00;;;10.10;99.90;;;;;;5099493;28;20253;-76
2023/12/29 10:52:43;;;;;;;3.30;0.90;;;10.10;99.90;;;;;;5092677;28;20612;-76
2023/12/29 10:55:10;;;;;;;3.73;0.93;;;10.10;99.90;;;;;;5092940;28;20258;-77
2023/12/29 10:57:37;;;;;;;4.67;1.07;;;10.20;99.90;;;;;;5092595;28;20198;-76
2023/12/29 11:00:05;;;;;;;2.17;0.90;;;10.20;99.90;;;;;;5090344;28;20782;-74
2023/12/29 11:02:32;;;;;;;4.37;1.00;;;10.30;99.90;;;;;;5093409;28;20206;-76
2023/12/29 11:05:07;;;;;;;2.97;0.87;;;10.30;99.90;;;;;;5092067;28;20241;-76
2023/12/29 11:07:41;;;;;;;4.03;1.10;;;10.30;99.90;;;;;;5096733;28;20311;-77
2023/12/29 11:10:09;;;;;;;2.47;0.80;;;10.40;99.90;;;;;;5097421;28;20217;-76
2023/12/29 11:12:38;;;;;;;4.30;0.90;;;10.40;99.90;;;;;;5093254;28;20559;-76
2023/12/29 11:15:05;;;;;;;3.83;1.10;;;10.40;99.90;;;;;;5092792;28;20176;-76
2023/12/29 11:17:34;;;;;;;3.37;1.27;;;10.50;99.90;;;;;;5092796;28;20194;-76
2023/12/29 11:20:00;;;;;;;6.00;1.40;;;10.50;99.90;;;;;;5092774;28;20650;-76
2023/12/29 11:22:29;;;;;;;4.17;1.20;;;10.50;99.90;;;;;;5092319;28;20543;-75
2023/12/29 11:24:54;;;;;;;3.57;1.20;;;10.50;99.90;;;;;;5091873;28;20166;-74
2023/12/29 11:27:22;;;;;;;4.10;1.20;;;10.50;99.90;;;;;;5092045;28;20667;-75
2023/12/29 11:29:47;;;;;;;7.70;1.57;;;10.50;99.90;;;;;;5090758;28;20183;-75
2023/12/29 11:32:27;;;;;;;6.00;1.20;;;10.60;99.90;;;;;;5090327;28;20205;-76
2023/12/29 11:35:02;;;;;;;7.20;1.33;;;10.60;99.90;;;;;;5093408;28;20579;-76
2023/12/29 11:37:54;;;;;;;4.53;1.10;;;10.60;99.90;;;;;;5095495;28;20629;-76
2023/12/29 11:40:41;;;;;;;4.23;0.90;;;10.60;99.90;;;;;;5095757;28;20169;-76
2023/12/29 11:43:12;;;;;;;4.80;1.40;;;10.60;99.90;;;;;;5095644;28;20297;-78
2023/12/29 11:45:39;;;;;;;4.87;1.20;;;10.60;99.90;;;;;;5097408;28;20159;-77
2023/12/29 11:48:05;;;;;;;3.17;1.00;;;10.70;99.90;;;;;;5096861;28;20170;-77
2023/12/29 11:50:32;;;;;;;3.57;1.10;;;10.70;99.90;;;;;;5096549;28;20175;-77
2023/12/29 11:52:58;;;;;;;4.97;1.37;;;10.70;99.90;;;;;;5096619;28;20189;-77
2023/12/29 11:55:35;;;;;;;3.20;1.00;;;10.70;99.90;;;;;;5096414;28;20553;-77
2023/12/29 11:58:00;;;;;;;5.00;1.17;;;10.70;99.90;;;;;;5094811;28;20190;-76
2023/12/29 12:00:46;;;;;;;3.67;1.10;;;10.70;99.90;;;;;;5095510;28;20181;-77
2023/12/29 12:03:31;;;;;;;3.03;1.00;;;10.70;99.90;;;;;;5096608;28;20187;-77
2023/12/29 12:05:58;;;;;;;7.33;1.43;;;10.70;99.90;;;;;;5095691;28;20170;-77
2023/12/29 12:08:32;;;;;;;4.77;1.40;;;10.80;99.90;;;;;;5095692;28;20324;-77
2023/12/29 12:11:29;;;;;;;4.03;1.70;;;10.70;99.90;;;;;;5095331;28;20182;-77
2023/12/29 12:13:56;;;;;;;5.77;1.07;;;10.70;99.90;;;;;;5096904;28;20174;-78
2023/12/29 12:16:50;;;;;;;2.63;0.90;;;10.70;99.90;;;;;;5097248;28;20175;-77
2023/12/29 12:19:20;;;;;;;5.00;1.63;;;10.70;99.90;;;;;;5097219;28;20192;-77
2023/12/29 12:21:48;;;;;;;4.50;1.03;;;10.70;99.90;;;;;;5097762;28;20731;-77
2023/12/29 12:24:14;;;;;;;4.30;1.43;;;10.60;99.90;;;;;;5098859;28;20173;-77
2023/12/29 12:26:40;;;;;;;10.07;1.33;;;10.60;99.90;;;;;;5095557;28;20303;-76
2023/12/29 12:29:07;;;;;;;4.83;1.23;;;10.50;99.90;;;;;;5093074;28;20287;-75
2023/12/29 12:31:32;;;;;;;2.70;1.00;;;10.40;99.90;;;;;;5094696;28;20276;-75
2023/12/29 12:34:01;;;;;;;4.83;1.13;;;10.30;99.90;;;;;;5093029;28;20725;-75
2023/12/29 12:36:27;;;;;;;2.13;1.00;;;10.30;99.90;;;;;;5092949;28;20200;-75
2023/12/29 12:38:54;;;;;;;5.20;1.23;;;10.20;99.90;;;;;;5093582;28;20170;-76
2023/12/29 12:41:20;;;;;;;2.23;0.90;;;10.20;99.90;;;;;;5092903;28;20174;-75
2023/12/29 12:44:04;;;;;;;4.67;1.30;;;10.10;99.90;;;;;;5094313;28;20200;-76
2023/12/29 12:46:35;;;;;;;3.57;1.20;;;10.10;99.90;;;;;;5093357;28;20185;-76